sensor_id;sensor_type;location;lat;lon;timestamp;pressure;altitude;pressure_sealevel;temperature;humidity
58223;BME280;44020;50.890;15.796;2023-06-22T00:00:13;97940.84;;;21.53;86.98
58223;BME280;44020;50.890;15.796;2023-06-22T00:03:00;97943.79;;;21.49;87.03
58223;BME280;44020;50.890;15.796;2023-06-22T00:05:29;97941.77;;;21.46;87.37
58223;BME280;44020;50.890;15.796;2023-06-22T00:07:57;97939.15;;;21.45;87.76
58223;BME280;44020;50.890;15.796;2023-06-22T00:10:24;97940.72;;;21.44;87.77
58223;BME280;44020;50.890;15.796;2023-06-22T00:12:51;97942.25;;;21.41;88.09
58223;BME280;44020;50.890;15.796;2023-06-22T00:15:19;97939.06;;;21.39;88.39
58223;BME280;44020;50.890;15.796;2023-06-22T00:17:47;97939.97;;;21.39;88.51
58223;BME280;44020;50.890;15.796;2023-06-22T00:20:15;97948.64;;;21.37;88.42
58223;BME280;44020;50.890;15.796;2023-06-22T00:22:44;97948.83;;;21.34;88.59
58223;BME280;44020;50.890;15.796;2023-06-22T00:25:12;97956.66;;;21.32;88.88
58223;BME280;44020;50.890;15.796;2023-06-22T00:27:39;97963.36;;;21.28;88.97
58223;BME280;44020;50.890;15.796;2023-06-22T00:30:08;97961.42;;;21.26;89.21
58223;BME280;44020;50.890;15.796;2023-06-22T00:32:35;97960.98;;;21.24;89.26
58223;BME280;44020;50.890;15.796;2023-06-22T00:35:04;97961.91;;;21.22;89.34
58223;BME280;44020;50.890;15.796;2023-06-22T00:37:31;97964.85;;;21.18;89.31
58223;BME280;44020;50.890;15.796;2023-06-22T00:39:59;97971.99;;;21.15;89.16
58223;BME280;44020;50.890;15.796;2023-06-22T00:42:26;97975.95;;;21.11;89.04
58223;BME280;44020;50.890;15.796;2023-06-22T00:44:54;97974.12;;;21.08;88.92
58223;BME280;44020;50.890;15.796;2023-06-22T00:47:22;97977.20;;;21.03;88.63
58223;BME280;44020;50.890;15.796;2023-06-22T00:49:50;97980.66;;;20.97;88.57
58223;BME280;44020;50.890;15.796;2023-06-22T00:52:22;97986.30;;;20.94;88.45
58223;BME280;44020;50.890;15.796;2023-06-22T00:54:54;97989.23;;;20.87;88.34
58223;BME280;44020;50.890;15.796;2023-06-22T00:57:24;97986.92;;;20.80;88.43
58223;BME280;44020;50.890;15.796;2023-06-22T00:59:55;97988.35;;;20.76;89.01
58223;BME280;44020;50.890;15.796;2023-06-22T01:02:23;97991.88;;;20.74;89.07
58223;BME280;44020;50.890;15.796;2023-06-22T01:04:50;97993.48;;;20.71;89.24
58223;BME280;44020;50.890;15.796;2023-06-22T01:07:38;97988.41;;;20.67;89.56
58223;BME280;44020;50.890;15.796;2023-06-22T01:10:27;97988.05;;;20.68;90.02
58223;BME280;44020;50.890;15.796;2023-06-22T01:13:03;97985.42;;;20.68;90.27
58223;BME280;44020;50.890;15.796;2023-06-22T01:15:36;97980.86;;;20.67;90.21
58223;BME280;44020;50.890;15.796;2023-06-22T01:18:08;97981.22;;;20.65;90.23
58223;BME280;44020;50.890;15.796;2023-06-22T01:20:38;97971.30;;;20.62;90.32
58223;BME280;44020;50.890;15.796;2023-06-22T01:23:11;97974.88;;;20.59;90.51
58223;BME280;44020;50.890;15.796;2023-06-22T01:26:06;97971.76;;;20.57;90.69
58223;BME280;44020;50.890;15.796;2023-06-22T01:31:17;97970.73;;;20.55;90.74
58223;BME280;44020;50.890;15.796;2023-06-22T01:33:51;97969.00;;;20.53;90.66
58223;BME280;44020;50.890;15.796;2023-06-22T01:36:19;97975.42;;;20.47;90.48
58223;BME280;44020;50.890;15.796;2023-06-22T01:38:48;97974.10;;;20.40;90.15
58223;BME280;44020;50.890;15.796;2023-06-22T01:41:16;97974.34;;;20.35;90.15
58223;BME280;44020;50.890;15.796;2023-06-22T01:43:45;97973.77;;;20.30;90.28
58223;BME280;44020;50.890;15.796;2023-06-22T01:46:13;97973.04;;;20.27;90.61
58223;BME280;44020;50.890;15.796;2023-06-22T01:48:41;97971.84;;;20.23;90.50
58223;BME280;44020;50.890;15.796;2023-06-22T01:51:09;97979.86;;;20.18;90.22
58223;BME280;44020;50.890;15.796;2023-06-22T01:53:36;97982.09;;;20.11;90.21
58223;BME280;44020;50.890;15.796;2023-06-22T01:56:04;97985.66;;;20.06;90.54
58223;BME280;44020;50.890;15.796;2023-06-22T01:58:33;97988.05;;;20.04;90.92
58223;BME280;44020;50.890;15.796;2023-06-22T02:01:10;97986.08;;;20.01;90.94
58223;BME280;44020;50.890;15.796;2023-06-22T02:03:57;97986.71;;;19.96;91.09
58223;BME280;44020;50.890;15.796;2023-06-22T02:06:33;97980.33;;;19.92;91.03
58223;BME280;44020;50.890;15.796;2023-06-22T02:09:10;97977.50;;;19.88;90.85
58223;BME280;44020;50.890;15.796;2023-06-22T02:11:41;97981.02;;;19.83;90.95
58223;BME280;44020;50.890;15.796;2023-06-22T02:14:10;97981.58;;;19.80;91.06
58223;BME280;44020;50.890;15.796;2023-06-22T02:16:39;97984.05;;;19.75;90.46
58223;BME280;44020;50.890;15.796;2023-06-22T02:19:07;97982.09;;;19.69;90.60
58223;BME280;44020;50.890;15.796;2023-06-22T02:21:35;97982.63;;;19.64;90.62
58223;BME280;44020;50.890;15.796;2023-06-22T02:24:04;97984.27;;;19.60;90.84
58223;BME280;44020;50.890;15.796;2023-06-22T02:26:31;97984.91;;;19.58;90.99
58223;BME280;44020;50.890;15.796;2023-06-22T02:28:59;97992.09;;;19.54;91.16
58223;BME280;44020;50.890;15.796;2023-06-22T02:31:27;97990.56;;;19.50;90.98
58223;BME280;44020;50.890;15.796;2023-06-22T02:33:58;97996.04;;;19.46;91.29
58223;BME280;44020;50.890;15.796;2023-06-22T02:36:26;98004.27;;;19.44;91.50
58223;BME280;44020;50.890;15.796;2023-06-22T02:38:58;98005.14;;;19.41;91.16
58223;BME280;44020;50.890;15.796;2023-06-22T02:41:28;97999.20;;;19.35;91.10
58223;BME280;44020;50.890;15.796;2023-06-22T02:43:55;97997.06;;;19.33;91.14
58223;BME280;44020;50.890;15.796;2023-06-22T02:46:23;97998.23;;;19.29;90.93
58223;BME280;44020;50.890;15.796;2023-06-22T02:48:50;97994.88;;;19.27;90.94
58223;BME280;44020;50.890;15.796;2023-06-22T02:51:18;97991.48;;;19.27;90.92
58223;BME280;44020;50.890;15.796;2023-06-22T02:53:45;97991.35;;;19.26;91.03
58223;BME280;44020;50.890;15.796;2023-06-22T02:56:14;97991.59;;;19.25;91.27
58223;BME280;44020;50.890;15.796;2023-06-22T02:58:42;97991.48;;;19.25;91.07
58223;BME280;44020;50.890;15.796;2023-06-22T03:01:10;97989.19;;;19.21;90.75
58223;BME280;44020;50.890;15.796;2023-06-22T03:03:39;97986.39;;;19.16;90.49
58223;BME280;44020;50.890;15.796;2023-06-22T03:06:08;97984.21;;;19.11;90.40
58223;BME280;44020;50.890;15.796;2023-06-22T03:08:40;97978.81;;;19.06;90.43
58223;BME280;44020;50.890;15.796;2023-06-22T03:11:09;97985.20;;;19.03;90.56
58223;BME280;44020;50.890;15.796;2023-06-22T03:13:36;97988.79;;;19.00;90.57
58223;BME280;44020;50.890;15.796;2023-06-22T03:16:04;97990.51;;;18.99;90.82
58223;BME280;44020;50.890;15.796;2023-06-22T03:18:31;97987.75;;;18.98;90.86
58223;BME280;44020;50.890;15.796;2023-06-22T03:20:59;97983.50;;;18.95;91.20
58223;BME280;44020;50.890;15.796;2023-06-22T03:23:27;97981.53;;;18.95;91.55
58223;BME280;44020;50.890;15.796;2023-06-22T03:25:55;97980.52;;;18.94;91.89
58223;BME280;44020;50.890;15.796;2023-06-22T03:28:23;97985.75;;;18.94;92.25
58223;BME280;44020;50.890;15.796;2023-06-22T03:30:51;97983.69;;;18.93;92.15
58223;BME280;44020;50.890;15.796;2023-06-22T03:33:19;97990.00;;;18.89;92.09
58223;BME280;44020;50.890;15.796;2023-06-22T03:35:46;97996.95;;;18.85;92.12
58223;BME280;44020;50.890;15.796;2023-06-22T03:38:14;97995.52;;;18.83;92.41
58223;BME280;44020;50.890;15.796;2023-06-22T03:40:41;97995.25;;;18.82;92.60
58223;BME280;44020;50.890;15.796;2023-06-22T03:43:08;97994.08;;;18.83;92.99
58223;BME280;44020;50.890;15.796;2023-06-22T03:45:37;97997.40;;;18.86;93.30
58223;BME280;44020;50.890;15.796;2023-06-22T03:48:04;97993.98;;;18.85;93.26
58223;BME280;44020;50.890;15.796;2023-06-22T03:50:32;97990.26;;;18.85;93.49
58223;BME280;44020;50.890;15.796;2023-06-22T03:52:59;97994.45;;;18.86;93.91
58223;BME280;44020;50.890;15.796;2023-06-22T03:55:27;97998.91;;;18.86;93.98
58223;BME280;44020;50.890;15.796;2023-06-22T03:57:55;97996.39;;;18.85;94.12
58223;BME280;44020;50.890;15.796;2023-06-22T04:00:24;97995.89;;;18.86;94.22
58223;BME280;44020;50.890;15.796;2023-06-22T04:02:52;97999.38;;;18.86;94.59
58223;BME280;44020;50.890;15.796;2023-06-22T04:05:20;97998.36;;;18.89;95.03
58223;BME280;44020;50.890;15.796;2023-06-22T04:07:48;97999.98;;;18.92;95.22
58223;BME280;44020;50.890;15.796;2023-06-22T04:10:15;98003.07;;;18.96;95.55
58223;BME280;44020;50.890;15.796;2023-06-22T04:12:43;98008.50;;;18.99;95.71
58223;BME280;44020;50.890;15.796;2023-06-22T04:15:11;98010.38;;;19.02;96.03
58223;BME280;44020;50.890;15.796;2023-06-22T04:17:39;98011.70;;;19.05;96.26
58223;BME280;44020;50.890;15.796;2023-06-22T04:20:07;98018.55;;;19.08;96.41
58223;BME280;44020;50.890;15.796;2023-06-22T04:22:35;98015.98;;;19.10;96.71
58223;BME280;44020;50.890;15.796;2023-06-22T04:25:05;98021.13;;;19.13;96.74
58223;BME280;44020;50.890;15.796;2023-06-22T04:27:34;98019.97;;;19.14;97.01
58223;BME280;44020;50.890;15.796;2023-06-22T04:30:07;98019.43;;;19.16;97.20
58223;BME280;44020;50.890;15.796;2023-06-22T04:32:35;98018.50;;;19.21;97.50
58223;BME280;44020;50.890;15.796;2023-06-22T04:35:07;98014.13;;;19.30;97.60
58223;BME280;44020;50.890;15.796;2023-06-22T04:37:34;98010.91;;;19.32;97.72
58223;BME280;44020;50.890;15.796;2023-06-22T04:40:02;98001.60;;;19.35;97.97
58223;BME280;44020;50.890;15.796;2023-06-22T04:42:34;97996.02;;;19.39;98.19
58223;BME280;44020;50.890;15.796;2023-06-22T04:45:03;97992.23;;;19.42;98.34
58223;BME280;44020;50.890;15.796;2023-06-22T04:47:31;97991.33;;;19.48;98.58
58223;BME280;44020;50.890;15.796;2023-06-22T04:49:59;97985.59;;;19.52;98.76
58223;BME280;44020;50.890;15.796;2023-06-22T04:52:27;97983.66;;;19.57;98.81
58223;BME280;44020;50.890;15.796;2023-06-22T04:54:54;97987.15;;;19.64;98.95
58223;BME280;44020;50.890;15.796;2023-06-22T04:57:24;97991.24;;;19.70;99.02
58223;BME280;44020;50.890;15.796;2023-06-22T05:00:02;97983.45;;;19.75;99.22
58223;BME280;44020;50.890;15.796;2023-06-22T05:02:40;97981.94;;;19.82;99.34
58223;BME280;44020;50.890;15.796;2023-06-22T05:05:08;97977.50;;;19.88;99.19
58223;BME280;44020;50.890;15.796;2023-06-22T05:07:36;97981.23;;;19.93;99.37
58223;BME280;44020;50.890;15.796;2023-06-22T05:10:04;97980.79;;;20.00;99.31
58223;BME280;44020;50.890;15.796;2023-06-22T05:12:32;97980.89;;;20.05;99.44
58223;BME280;44020;50.890;15.796;2023-06-22T05:15:00;97984.60;;;20.11;99.51
58223;BME280;44020;50.890;15.796;2023-06-22T05:17:28;97983.51;;;20.16;99.40
58223;BME280;44020;50.890;15.796;2023-06-22T05:19:56;97985.46;;;20.22;99.06
58223;BME280;44020;50.890;15.796;2023-06-22T05:22:23;97993.89;;;20.28;98.91
58223;BME280;44020;50.890;15.796;2023-06-22T05:24:50;97996.95;;;20.33;98.82
58223;BME280;44020;50.890;15.796;2023-06-22T05:27:18;97999.98;;;20.40;98.79
58223;BME280;44020;50.890;15.796;2023-06-22T05:29:46;98001.41;;;20.47;98.94
58223;BME280;44020;50.890;15.796;2023-06-22T05:32:13;98004.09;;;20.55;98.94
58223;BME280;44020;50.890;15.796;2023-06-22T05:34:41;98004.04;;;20.63;98.81
58223;BME280;44020;50.890;15.796;2023-06-22T05:37:08;98003.59;;;20.71;98.97
58223;BME280;44020;50.890;15.796;2023-06-22T05:39:37;98002.30;;;20.78;98.87
58223;BME280;44020;50.890;15.796;2023-06-22T05:42:06;98012.97;;;20.84;98.64
58223;BME280;44020;50.890;15.796;2023-06-22T05:44:33;98018.39;;;20.91;98.52
58223;BME280;44020;50.890;15.796;2023-06-22T05:47:01;98021.10;;;20.97;98.53
58223;BME280;44020;50.890;15.796;2023-06-22T05:49:29;98020.13;;;21.05;98.57
58223;BME280;44020;50.890;15.796;2023-06-22T05:52:00;98017.80;;;21.11;98.47
58223;BME280;44020;50.890;15.796;2023-06-22T05:54:28;98016.45;;;21.19;98.44
58223;BME280;44020;50.890;15.796;2023-06-22T05:56:55;98007.61;;;21.25;98.28
58223;BME280;44020;50.890;15.796;2023-06-22T05:59:23;98011.19;;;21.32;98.34
58223;BME280;44020;50.890;15.796;2023-06-22T06:01:50;98015.02;;;21.40;98.32
58223;BME280;44020;50.890;15.796;2023-06-22T06:04:18;98016.48;;;21.49;98.48
58223;BME280;44020;50.890;15.796;2023-06-22T06:06:46;98015.48;;;21.57;98.43
58223;BME280;44020;50.890;15.796;2023-06-22T06:09:14;98016.30;;;21.67;98.50
58223;BME280;44020;50.890;15.796;2023-06-22T06:11:42;98020.94;;;21.77;98.30
58223;BME280;44020;50.890;15.796;2023-06-22T06:14:09;98027.71;;;21.86;97.90
58223;BME280;44020;50.890;15.796;2023-06-22T06:16:37;98029.57;;;21.95;97.50
58223;BME280;44020;50.890;15.796;2023-06-22T06:19:05;98028.11;;;22.03;97.61
58223;BME280;44020;50.890;15.796;2023-06-22T06:21:32;98033.91;;;22.11;97.10
58223;BME280;44020;50.890;15.796;2023-06-22T06:24:00;98038.06;;;22.17;96.46
58223;BME280;44020;50.890;15.796;2023-06-22T06:26:28;98043.20;;;22.24;95.99
58223;BME280;44020;50.890;15.796;2023-06-22T06:28:57;98040.45;;;22.31;95.43
58223;BME280;44020;50.890;15.796;2023-06-22T06:31:25;98039.52;;;22.37;95.39
58223;BME280;44020;50.890;15.796;2023-06-22T06:33:55;98042.46;;;22.46;95.37
58223;BME280;44020;50.890;15.796;2023-06-22T06:36:22;98047.73;;;22.56;94.78
58223;BME280;44020;50.890;15.796;2023-06-22T06:38:50;98050.48;;;22.63;94.41
58223;BME280;44020;50.890;15.796;2023-06-22T06:41:19;98052.39;;;22.71;94.19
58223;BME280;44020;50.890;15.796;2023-06-22T06:43:46;98054.08;;;22.78;94.24
58223;BME280;44020;50.890;15.796;2023-06-22T06:46:14;98054.52;;;22.80;93.64
58223;BME280;44020;50.890;15.796;2023-06-22T06:48:41;98050.30;;;22.79;93.26
58223;BME280;44020;50.890;15.796;2023-06-22T06:51:09;98052.70;;;22.79;93.08
58223;BME280;44020;50.890;15.796;2023-06-22T06:53:38;98048.00;;;22.80;92.93
58223;BME280;44020;50.890;15.796;2023-06-22T06:56:05;98047.42;;;22.85;92.97
58223;BME280;44020;50.890;15.796;2023-06-22T06:58:33;98052.90;;;22.91;92.78
58223;BME280;44020;50.890;15.796;2023-06-22T07:01:01;98050.57;;;22.99;92.53
58223;BME280;44020;50.890;15.796;2023-06-22T07:03:28;98041.58;;;23.04;92.09
58223;BME280;44020;50.890;15.796;2023-06-22T07:05:55;98039.60;;;23.11;91.52
58223;BME280;44020;50.890;15.796;2023-06-22T07:08:23;98034.33;;;23.14;91.36
58223;BME280;44020;50.890;15.796;2023-06-22T07:10:52;98038.07;;;23.16;90.85
58223;BME280;44020;50.890;15.796;2023-06-22T07:13:19;98042.34;;;23.18;90.40
58223;BME280;44020;50.890;15.796;2023-06-22T07:15:46;98041.36;;;23.22;89.91
58223;BME280;44020;50.890;15.796;2023-06-22T07:18:14;98035.81;;;23.29;89.88
58223;BME280;44020;50.890;15.796;2023-06-22T07:20:41;98033.19;;;23.36;88.93
58223;BME280;44020;50.890;15.796;2023-06-22T07:23:09;98028.98;;;23.42;88.74
58223;BME280;44020;50.890;15.796;2023-06-22T07:25:36;98025.23;;;23.53;88.18
58223;BME280;44020;50.890;15.796;2023-06-22T07:28:05;98022.05;;;23.60;87.38
58223;BME280;44020;50.890;15.796;2023-06-22T07:30:33;98018.00;;;23.68;86.62
58223;BME280;44020;50.890;15.796;2023-06-22T07:33:01;98013.64;;;23.74;86.13
58223;BME280;44020;50.890;15.796;2023-06-22T07:35:34;98011.55;;;23.84;85.97
58223;BME280;44020;50.890;15.796;2023-06-22T07:38:02;98012.99;;;23.93;85.81
58223;BME280;44020;50.890;15.796;2023-06-22T07:40:30;98012.86;;;24.03;85.08
58223;BME280;44020;50.890;15.796;2023-06-22T07:42:58;98014.02;;;24.12;84.72
58223;BME280;44020;50.890;15.796;2023-06-22T07:45:25;98012.27;;;24.20;84.11
58223;BME280;44020;50.890;15.796;2023-06-22T07:47:52;98001.11;;;24.28;83.40
58223;BME280;44020;50.890;15.796;2023-06-22T07:50:20;97996.39;;;24.36;83.23
58223;BME280;44020;50.890;15.796;2023-06-22T07:52:47;97993.41;;;24.44;82.88
58223;BME280;44020;50.890;15.796;2023-06-22T07:55:15;97996.53;;;24.52;82.51
58223;BME280;44020;50.890;15.796;2023-06-22T07:57:42;97996.95;;;24.62;82.25
58223;BME280;44020;50.890;15.796;2023-06-22T08:00:10;97994.20;;;24.69;80.60
58223;BME280;44020;50.890;15.796;2023-06-22T08:02:45;97998.53;;;24.74;79.15
58223;BME280;44020;50.890;15.796;2023-06-22T08:05:14;97997.05;;;24.78;78.62
58223;BME280;44020;50.890;15.796;2023-06-22T08:07:41;97998.36;;;24.85;78.04
58223;BME280;44020;50.890;15.796;2023-06-22T08:10:11;97998.03;;;24.93;77.78
58223;BME280;44020;50.890;15.796;2023-06-22T08:12:42;97995.52;;;25.01;77.36
58223;BME280;44020;50.890;15.796;2023-06-22T08:15:09;97998.44;;;25.07;76.36
58223;BME280;44020;50.890;15.796;2023-06-22T08:17:37;97997.27;;;25.12;75.81
58223;BME280;44020;50.890;15.796;2023-06-22T08:20:08;97987.92;;;25.17;75.18
58223;BME280;44020;50.890;15.796;2023-06-22T08:22:43;97981.64;;;25.24;74.98
58223;BME280;44020;50.890;15.796;2023-06-22T08:25:10;97968.46;;;25.32;75.05
58223;BME280;44020;50.890;15.796;2023-06-22T08:27:38;97967.58;;;25.36;74.51
58223;BME280;44020;50.890;15.796;2023-06-22T08:30:06;97960.74;;;25.41;74.52
58223;BME280;44020;50.890;15.796;2023-06-22T08:32:34;97959.15;;;25.46;74.03
58223;BME280;44020;50.890;15.796;2023-06-22T08:35:02;97960.10;;;25.53;73.66
58223;BME280;44020;50.890;15.796;2023-06-22T08:37:30;97962.63;;;25.59;72.57
58223;BME280;44020;50.890;15.796;2023-06-22T08:39:59;97966.16;;;25.65;72.18
58223;BME280;44020;50.890;15.796;2023-06-22T08:42:28;97961.73;;;25.74;72.22
58223;BME280;44020;50.890;15.796;2023-06-22T08:44:55;97962.56;;;25.78;70.97
58223;BME280;44020;50.890;15.796;2023-06-22T08:47:23;97965.21;;;25.84;70.95
58223;BME280;44020;50.890;15.796;2023-06-22T08:49:50;97963.99;;;25.92;70.71
58223;BME280;44020;50.890;15.796;2023-06-22T08:52:18;97959.22;;;26.02;70.79
58223;BME280;44020;50.890;15.796;2023-06-22T08:54:47;97954.65;;;26.09;70.04
58223;BME280;44020;50.890;15.796;2023-06-22T08:57:15;97958.31;;;26.11;68.40
58223;BME280;44020;50.890;15.796;2023-06-22T08:59:43;97962.08;;;26.15;67.35
58223;BME280;44020;50.890;15.796;2023-06-22T09:02:10;97965.52;;;26.22;66.20
58223;BME280;44020;50.890;15.796;2023-06-22T09:04:38;97967.15;;;26.28;64.99
58223;BME280;44020;50.890;15.796;2023-06-22T09:07:06;97968.40;;;26.32;64.89
58223;BME280;44020;50.890;15.796;2023-06-22T09:09:34;97961.91;;;26.39;64.52
58223;BME280;44020;50.890;15.796;2023-06-22T09:12:01;97961.73;;;26.44;64.45
58223;BME280;44020;50.890;15.796;2023-06-22T09:14:29;97957.96;;;26.48;64.13
58223;BME280;44020;50.890;15.796;2023-06-22T09:16:56;97957.52;;;26.53;64.74
58223;BME280;44020;50.890;15.796;2023-06-22T09:19:24;97959.32;;;26.51;63.80
58223;BME280;44020;50.890;15.796;2023-06-22T09:21:57;97960.05;;;26.47;63.81
58223;BME280;44020;50.890;15.796;2023-06-22T09:24:25;97951.33;;;26.50;63.74
58223;BME280;44020;50.890;15.796;2023-06-22T09:26:52;97947.89;;;26.57;64.02
58223;BME280;44020;50.890;15.796;2023-06-22T09:29:19;97944.82;;;26.68;64.55
58223;BME280;44020;50.890;15.796;2023-06-22T09:31:47;97943.77;;;26.75;64.11
58223;BME280;44020;50.890;15.796;2023-06-22T09:34:20;97941.29;;;26.82;63.58
58223;BME280;44020;50.890;15.796;2023-06-22T09:36:47;97936.59;;;26.86;63.27
58223;BME280;44020;50.890;15.796;2023-06-22T09:39:14;97937.23;;;26.90;63.76
58223;BME280;44020;50.890;15.796;2023-06-22T09:41:42;97936.20;;;27.02;63.16
58223;BME280;44020;50.890;15.796;2023-06-22T09:46:35;97932.74;;;27.16;62.52
58223;BME280;44020;50.890;15.796;2023-06-22T09:49:21;97937.44;;;27.21;62.38
58223;BME280;44020;50.890;15.796;2023-06-22T09:55:36;97934.09;;;27.26;62.13
58223;BME280;44020;50.890;15.796;2023-06-22T09:58:24;97933.01;;;27.30;61.82
58223;BME280;44020;50.890;15.796;2023-06-22T10:01:15;97937.41;;;27.31;61.25
58223;BME280;44020;50.890;15.796;2023-06-22T10:04:12;97933.97;;;27.31;61.45
58223;BME280;44020;50.890;15.796;2023-06-22T10:14:19;97923.05;;;27.38;62.14
58223;BME280;44020;50.890;15.796;2023-06-22T10:18:01;97928.41;;;27.45;62.10
58223;BME280;44020;50.890;15.796;2023-06-22T10:21:37;97930.77;;;27.58;61.55
58223;BME280;44020;50.890;15.796;2023-06-22T10:24:18;97920.52;;;27.72;61.53
58223;BME280;44020;50.890;15.796;2023-06-22T10:31:35;97911.85;;;27.87;60.65
58223;BME280;44020;50.890;15.796;2023-06-22T10:34:30;97908.38;;;27.94;60.61
58223;BME280;44020;50.890;15.796;2023-06-22T10:44:40;97905.92;;;28.12;60.18
58223;BME280;44020;50.890;15.796;2023-06-22T10:47:55;97900.91;;;28.14;59.69
58223;BME280;44020;50.890;15.796;2023-06-22T10:51:00;97892.88;;;28.08;59.44
58223;BME280;44020;50.890;15.796;2023-06-22T10:57:32;97892.23;;;28.11;59.36
58223;BME280;44020;50.890;15.796;2023-06-22T11:00:32;97894.42;;;28.25;59.29
58223;BME280;44020;50.890;15.796;2023-06-22T11:10:00;97879.14;;;28.40;58.11
58223;BME280;44020;50.890;15.796;2023-06-22T11:13:12;97875.11;;;28.51;58.44
58223;BME280;44020;50.890;15.796;2023-06-22T11:16:21;97874.33;;;28.63;58.41
58223;BME280;44020;50.890;15.796;2023-06-22T11:19:14;97876.86;;;28.78;58.07
58223;BME280;44020;50.890;15.796;2023-06-22T11:25:28;97877.80;;;28.96;57.05
58223;BME280;44020;50.890;15.796;2023-06-22T11:28:22;97869.85;;;29.03;56.92
58223;BME280;44020;50.890;15.796;2023-06-22T11:34:36;97865.81;;;29.22;56.44
58223;BME280;44020;50.890;15.796;2023-06-22T11:37:25;97857.48;;;29.32;56.13
58223;BME280;44020;50.890;15.796;2023-06-22T11:49:28;97854.07;;;29.37;55.23
58223;BME280;44020;50.890;15.796;2023-06-22T11:58:51;97849.66;;;29.33;55.43
58223;BME280;44020;50.890;15.796;2023-06-22T12:01:44;97852.38;;;29.38;54.97
58223;BME280;44020;50.890;15.796;2023-06-22T12:04:42;97844.70;;;29.41;55.01
58223;BME280;44020;50.890;15.796;2023-06-22T12:07:34;97841.36;;;29.50;55.49
58223;BME280;44020;50.890;15.796;2023-06-22T12:17:08;97827.73;;;29.57;54.73
58223;BME280;44020;50.890;15.796;2023-06-22T12:20:29;97827.10;;;29.56;54.54
58223;BME280;44020;50.890;15.796;2023-06-22T12:23:34;97825.02;;;29.72;54.47
58223;BME280;44020;50.890;15.796;2023-06-22T12:26:35;97828.89;;;29.87;54.25
58223;BME280;44020;50.890;15.796;2023-06-22T12:44:58;97803.27;;;30.23;53.27
58223;BME280;44020;50.890;15.796;2023-06-22T12:51:25;97805.14;;;30.32;53.21
58223;BME280;44020;50.890;15.796;2023-06-22T12:54:37;97800.39;;;30.41;53.00
58223;BME280;44020;50.890;15.796;2023-06-22T13:00:34;97803.66;;;30.62;52.44
58223;BME280;44020;50.890;15.796;2023-06-22T13:06:23;97798.13;;;30.75;51.68
58223;BME280;44020;50.890;15.796;2023-06-22T13:18:53;97797.19;;;31.09;52.06
58223;BME280;44020;50.890;15.796;2023-06-22T13:34:03;97779.12;;;31.16;50.98
58223;BME280;44020;50.890;15.796;2023-06-22T13:43:01;97771.92;;;31.10;51.04
58223;BME280;44020;50.890;15.796;2023-06-22T13:46:02;97769.08;;;31.08;50.93
58223;BME280;44020;50.890;15.796;2023-06-22T13:48:57;97766.39;;;31.02;50.63
58223;BME280;44020;50.890;15.796;2023-06-22T13:51:45;97761.91;;;30.99;51.10
58223;BME280;44020;50.890;15.796;2023-06-22T13:54:56;97757.84;;;31.04;50.94
58223;BME280;44020;50.890;15.796;2023-06-22T13:57:43;97755.73;;;31.08;50.92
58223;BME280;44020;50.890;15.796;2023-06-22T14:03:49;97754.70;;;31.07;50.98
58223;BME280;44020;50.890;15.796;2023-06-22T14:22:48;97729.27;;;31.37;50.18
58223;BME280;44020;50.890;15.796;2023-06-22T14:26:06;97730.89;;;31.40;49.82
58223;BME280;44020;50.890;15.796;2023-06-22T14:29:14;97725.16;;;31.40;50.06
58223;BME280;44020;50.890;15.796;2023-06-22T14:32:11;97728.80;;;31.38;49.97
58223;BME280;44020;50.890;15.796;2023-06-22T14:35:24;97724.94;;;31.41;49.91
58223;BME280;44020;50.890;15.796;2023-06-22T14:43:56;97707.66;;;31.42;49.68
58223;BME280;44020;50.890;15.796;2023-06-22T14:52:20;97701.35;;;31.59;49.04
58223;BME280;44020;50.890;15.796;2023-06-22T14:55:24;97702.34;;;31.67;49.12
58223;BME280;44020;50.890;15.796;2023-06-22T15:07:42;97710.45;;;31.44;48.47
58223;BME280;44020;50.890;15.796;2023-06-22T15:10:22;97708.75;;;31.39;48.66
58223;BME280;44020;50.890;15.796;2023-06-22T15:13:25;97709.09;;;31.34;48.65
58223;BME280;44020;50.890;15.796;2023-06-22T15:16:14;97707.78;;;31.34;48.57
58223;BME280;44020;50.890;15.796;2023-06-22T15:19:06;97704.13;;;31.36;48.88
58223;BME280;44020;50.890;15.796;2023-06-22T15:32:01;97671.35;;;31.31;49.06
58223;BME280;44020;50.890;15.796;2023-06-22T15:38:28;97668.29;;;31.12;48.78
58223;BME280;44020;50.890;15.796;2023-06-22T15:47:04;97664.90;;;31.01;48.69
58223;BME280;44020;50.890;15.796;2023-06-22T15:49:43;97665.18;;;31.06;48.66
58223;BME280;44020;50.890;15.796;2023-06-22T15:58:53;97657.27;;;31.24;48.74
58223;BME280;44020;50.890;15.796;2023-06-22T16:01:57;97659.98;;;31.22;48.61
58223;BME280;44020;50.890;15.796;2023-06-22T16:04:51;97651.55;;;31.25;48.56
58223;BME280;44020;50.890;15.796;2023-06-22T16:08:11;97646.26;;;31.27;48.53
58223;BME280;44020;50.890;15.796;2023-06-22T16:13:33;97629.14;;;31.27;48.40
58223;BME280;44020;50.890;15.796;2023-06-22T16:16:24;97629.92;;;31.22;48.26
58223;BME280;44020;50.890;15.796;2023-06-22T16:18:56;97629.18;;;31.19;48.25
58223;BME280;44020;50.890;15.796;2023-06-22T16:21:32;97621.66;;;31.15;48.38
58223;BME280;44020;50.890;15.796;2023-06-22T16:24:00;97627.42;;;31.14;48.20
58223;BME280;44020;50.890;15.796;2023-06-22T16:27:02;97626.04;;;31.11;48.19
58223;BME280;44020;50.890;15.796;2023-06-22T16:35:29;97619.91;;;30.88;48.47
58223;BME280;44020;50.890;15.796;2023-06-22T16:41:54;97617.33;;;30.73;48.58
58223;BME280;44020;50.890;15.796;2023-06-22T16:44:32;97610.52;;;30.60;48.73
58223;BME280;44020;50.890;15.796;2023-06-22T16:47:54;97605.02;;;30.50;49.08
58223;BME280;44020;50.890;15.796;2023-06-22T17:00:17;97589.70;;;30.16;49.19